Salina, KS

3:21 AM CDT on August 29, 2014 (GMT -0500)
Hutchinson Municipal | Change Station
CLOSE
Current Station
Airport
Location: Hutchinson,
Elevation: 1542 ft
Nearby Weather Stations

Elev 1542 ft 38.07 °N, 97.86 °W | Updated 29 minutes ago

Rain
Rain
68 °F
Feels Like 68 °F
N
21
Wind Variable Wind from West

Today
High -- | Low -- °F
--% Chance of Precip.
Yesterday
High -- | Low -- °F
Precip. -- in
6:56 AM 8:05 PM
Waxing Crescent, 13% visible
Pressure 29.81 in
Visibility 7.0 miles
Clouds Few 7000 ft
Overcast 9000 ft
Dew Point 63 °F
Humidity 84%
Rainfall 0.13 in
Snow Depth Not available.
UV 0 out of 12
Pollen 2.70 out of 12
Air Quality Not available.
Flu Activity Not available.
METAR KHUT 290752Z AUTO 26018KT 7SM RA FEW070 OVC090 20/17 A2987 RMK AO2 SLP095 P0013 T02000172

More Conditions Fewer Conditions

Pressure 29.81 in
Visibility 7.0 miles
Clouds Few 7000 ft
Overcast 9000 ft
Dew Point 63 °F
Humidity 84%
Rainfall 0.13 in
Snow Depth Not available.
UV 0 out of 12
Pollen 2.70 out of 12
Air Quality Not available.
Flu Activity Not available.
METAR KHUT 290752Z AUTO 26018KT 7SM RA FEW070 OVC090 20/17 A2987 RMK AO2 SLP095 P0013 T02000172

More Conditions Fewer Conditions

10-Day Weather Forecast

Almanac

Astronomy

Aug. 29, 2014 Rise Set
Actual Time 6:56 AM CDT 8:05 PM CDT
Civil Twilight 6:29 AM CDT 8:32 PM CDT
Nautical Twilight 5:56 AM CDT 9:05 PM CDT
Astronomical Twilight 5:22 AM CDT 9:39 PM CDT
Moon 10:45 AM CDT 10:06 PM CDT
Length of Visible Light 14h 03m
Length of Day
13h 08m
Tomorrow will be 2m 23s shorter.
Waxing Crescent, 13% of the Moon is Illuminated
Today
Waxing Crescent
Sep 2
First Quarter
Sep 8
Full
Sep 15
Last Quarter
Sep 24
New

Today's Extremes

State Highs State Lows

Community

WunderPhotos

Upload Photos

1,748,197 photos uploaded!

Nearby

Snow Depth

Station Depth Elevation
No new snow has been reported.

Earthquake Activity

City Distance Mag. Time & Date
Anthony, Kansas 125 miles 2.8 10:11 AM CDT
2014-08-27
Minimum magnitude displayed is 2.5.

Coastal Water Temperatures

Place Temperature
No Stations Reporting

Nearby Weather Stations